Time;durP1;ratioP1;P1;durP2;ratioP2;P2;SDS_P1;SDS_P2;PMS_P1;PMS_P2;Temp;Humidity;BMP_temperature;BMP_pressure;BME280_temperature;BME280_humidity;BME280_pressure;Samples;Min_cycle;Max_cycle;Signal;HPM_P1;HPM_P2
2023/10/18 00:00:37;;;;;;;12.05;4.43;;;5.50;99.90;;;;;;4989411;28;20077;-75
2023/10/18 00:03:02;;;;;;;9.23;4.18;;;5.50;99.90;;;;;;4992112;28;20136;-75
2023/10/18 00:05:29;;;;;;;9.52;4.18;;;5.50;99.90;;;;;;4973773;28;20060;-75
2023/10/18 00:07:59;;;;;;;10.30;4.80;;;5.50;99.90;;;;;;4990432;28;20046;-74
2023/10/18 00:10:26;;;;;;;10.75;4.95;;;5.50;99.90;;;;;;4990059;28;20262;-74
2023/10/18 00:12:52;;;;;;;7.45;4.22;;;5.50;99.90;;;;;;4992268;28;21262;-75
2023/10/18 00:15:19;;;;;;;13.90;4.82;;;5.50;99.90;;;;;;4991340;28;20061;-75
2023/10/18 00:17:45;;;;;;;9.13;4.28;;;5.50;99.90;;;;;;4993041;28;20034;-75
2023/10/18 00:20:15;;;;;;;13.55;5.13;;;5.50;99.90;;;;;;4989696;28;20052;-75
2023/10/18 00:22:44;;;;;;;11.80;5.53;;;5.50;99.90;;;;;;4971059;28;20526;-75
2023/10/18 00:25:10;;;;;;;10.02;5.15;;;5.50;99.90;;;;;;4993496;28;20052;-75
2023/10/18 00:27:38;;;;;;;14.65;6.07;;;5.40;99.90;;;;;;4987117;28;20387;-75
2023/10/18 00:30:11;;;;;;;11.73;6.10;;;5.40;99.90;;;;;;4984782;28;20048;-75
2023/10/18 00:32:42;;;;;;;13.23;6.20;;;5.40;99.90;;;;;;4994574;28;20402;-76
2023/10/18 00:35:29;;;;;;;12.52;5.80;;;5.40;99.90;;;;;;4991503;28;20045;-75
2023/10/18 00:37:54;;;;;;;15.50;6.65;;;5.40;99.90;;;;;;4986960;28;20399;-75
2023/10/18 00:40:25;;;;;;;11.73;6.18;;;5.40;99.90;;;;;;4974846;28;20088;-75
2023/10/18 00:43:03;;;;;;;15.38;6.50;;;5.40;99.90;;;;;;4991111;28;20495;-75
2023/10/18 00:45:30;;;;;;;11.75;6.30;;;5.40;99.90;;;;;;4977717;28;20164;-75
2023/10/18 00:47:58;;;;;;;12.10;6.45;;;5.40;99.90;;;;;;4996424;28;20049;-75
2023/10/18 00:50:31;;;;;;;12.50;6.65;;;5.40;99.90;;;;;;4994611;28;20042;-75
2023/10/18 00:52:57;;;;;;;12.27;6.22;;;5.40;99.90;;;;;;4999925;28;20077;-75
2023/10/18 00:55:23;;;;;;;16.05;6.68;;;5.40;99.90;;;;;;5002379;28;20046;-75
2023/10/18 00:57:49;;;;;;;13.43;6.97;;;5.40;99.90;;;;;;5011018;28;20050;-75
2023/10/18 01:00:19;;;;;;;12.35;6.72;;;5.70;99.90;;;;;;5006795;28;20050;-75
2023/10/18 01:02:48;;;;;;;12.50;7.45;;;5.40;99.90;;;;;;4993354;28;20438;-76
2023/10/18 01:05:15;;;;;;;16.10;6.60;;;5.40;99.90;;;;;;4990529;28;20096;-76
2023/10/18 01:07:42;;;;;;;13.27;6.72;;;5.30;99.90;;;;;;4979353;28;20192;-75
2023/10/18 01:10:12;;;;;;;14.20;7.00;;;5.30;99.90;;;;;;4984036;28;20042;-76
2023/10/18 01:12:38;;;;;;;15.13;7.10;;;5.30;99.90;;;;;;4990763;28;20127;-75
2023/10/18 01:15:06;;;;;;;13.88;6.75;;;5.40;99.90;;;;;;4993549;28;20041;-76
2023/10/18 01:17:34;;;;;;;14.63;7.57;;;5.30;99.90;;;;;;4991320;28;20072;-75
2023/10/18 01:20:19;;;;;;;13.77;7.28;;;5.30;99.90;;;;;;4974069;28;20038;-76
2023/10/18 01:22:45;;;;;;;16.00;7.25;;;5.30;99.90;;;;;;4970034;28;20147;-76
2023/10/18 01:25:13;;;;;;;14.05;7.30;;;5.60;99.90;;;;;;4969183;28;20565;-76
2023/10/18 01:27:39;;;;;;;18.23;8.20;;;5.30;99.90;;;;;;4979836;28;20389;-76
2023/10/18 01:30:06;;;;;;;14.38;7.57;;;5.30;99.90;;;;;;4987482;28;20049;-75
2023/10/18 01:32:32;;;;;;;13.43;7.43;;;5.30;99.90;;;;;;4972145;28;20105;-76
2023/10/18 01:34:57;;;;;;;16.48;8.00;;;5.40;99.90;;;;;;4983817;28;20503;-76
2023/10/18 01:37:23;;;;;;;15.75;8.10;;;5.30;99.90;;;;;;4969309;28;20499;-75
2023/10/18 01:39:52;;;;;;;16.08;7.55;;;5.20;99.90;;;;;;4969765;28;20401;-76
2023/10/18 01:42:18;;;;;;;14.98;8.35;;;5.40;99.90;;;;;;4985280;28;20099;-76
2023/10/18 01:44:45;;;;;;;15.85;8.55;;;5.20;99.90;;;;;;4983572;28;20054;-75
2023/10/18 01:47:12;;;;;;;18.23;8.40;;;5.20;99.90;;;;;;4965721;28;20048;-75
2023/10/18 01:49:43;;;;;;;14.93;8.13;;;5.20;99.90;;;;;;4968524;28;20046;-75
2023/10/18 01:52:12;;;;;;;15.30;8.73;;;5.20;99.90;;;;;;4989369;28;20124;-75
2023/10/18 01:54:38;;;;;;;15.75;8.45;;;5.20;99.90;;;;;;4973661;28;20552;-75
2023/10/18 01:57:06;;;;;;;17.58;8.65;;;5.40;99.90;;;;;;4986075;28;20152;-75
2023/10/18 01:59:34;;;;;;;16.13;8.95;;;5.30;99.90;;;;;;4984346;28;20562;-75
2023/10/18 02:02:05;;;;;;;14.68;7.78;;;5.20;99.90;;;;;;4976489;28;20556;-75
2023/10/18 02:04:36;;;;;;;14.70;7.93;;;5.10;99.90;;;;;;4989229;28;20050;-75
2023/10/18 02:07:02;;;;;;;18.02;9.23;;;5.10;99.90;;;;;;4974847;28;20230;-76
2023/10/18 02:09:49;;;;;;;18.23;9.23;;;5.10;99.90;;;;;;4994332;28;20191;-74
2023/10/18 02:12:21;;;;;;;16.00;8.60;;;5.10;99.90;;;;;;4995311;28;20072;-75
2023/10/18 02:14:51;;;;;;;14.13;8.90;;;5.10;99.90;;;;;;4969637;28;20045;-75
2023/10/18 02:17:21;;;;;;;15.27;8.25;;;5.10;99.90;;;;;;4983806;28;20503;-75
2023/10/18 02:19:52;;;;;;;16.45;9.00;;;5.10;99.90;;;;;;4977391;28;20046;-76
2023/10/18 02:22:18;;;;;;;18.33;9.10;;;5.10;99.90;;;;;;4975074;28;20694;-75
2023/10/18 02:24:44;;;;;;;17.95;9.13;;;5.10;99.90;;;;;;4969536;28;20327;-76
2023/10/18 02:27:15;;;;;;;17.02;9.27;;;5.10;99.90;;;;;;4990020;28;20558;-76
2023/10/18 02:29:44;;;;;;;20.77;9.35;;;5.10;99.90;;;;;;4991245;28;20056;-75
2023/10/18 02:34:54;;;;;;;21.90;11.25;;;5.00;99.90;;;;;;4985562;28;20056;-75
2023/10/18 02:37:19;;;;;;;19.08;9.90;;;5.00;99.90;;;;;;4972510;28;20583;-75
2023/10/18 02:39:46;;;;;;;16.30;9.63;;;5.00;99.90;;;;;;4985907;28;20547;-75
2023/10/18 02:42:13;;;;;;;19.33;10.25;;;5.00;99.90;;;;;;4984028;28;20128;-75
2023/10/18 02:44:42;;;;;;;19.30;10.27;;;5.00;99.90;;;;;;4991510;28;20207;-76
2023/10/18 02:50:04;;;;;;;21.70;10.90;;;5.00;99.90;;;;;;4972550;28;20053;-75
2023/10/18 02:52:30;;;;;;;20.35;11.40;;;5.00;99.90;;;;;;4970633;28;20050;-75
2023/10/18 02:54:57;;;;;;;17.77;10.13;;;5.00;99.90;;;;;;4987518;28;20085;-75
2023/10/18 02:57:24;;;;;;;19.83;10.95;;;5.00;99.90;;;;;;4974076;28;20042;-75
2023/10/18 02:59:50;;;;;;;19.73;11.85;;;5.40;99.90;;;;;;4979333;28;20548;-76
2023/10/18 03:02:24;;;;;;;18.58;11.27;;;5.00;99.90;;;;;;4974017;28;20080;-75
2023/10/18 03:04:49;;;;;;;20.33;11.60;;;4.90;99.90;;;;;;4972547;28;20045;-75
2023/10/18 03:07:15;;;;;;;21.05;11.63;;;4.90;99.90;;;;;;4979643;28;20038;-75
2023/10/18 03:09:41;;;;;;;19.33;11.80;;;5.10;99.90;;;;;;4978128;28;20033;-75
2023/10/18 03:12:13;;;;;;;19.00;11.38;;;4.90;99.90;;;;;;5003051;28;20461;-75
2023/10/18 03:14:39;;;;;;;19.75;10.98;;;4.90;99.90;;;;;;4978033;28;20038;-76
2023/10/18 03:17:18;;;;;;;21.17;11.82;;;4.90;99.90;;;;;;4996565;28;20053;-76
2023/10/18 03:19:44;;;;;;;22.50;11.50;;;5.20;99.90;;;;;;5006910;28;20058;-74
2023/10/18 03:22:10;;;;;;;20.23;11.63;;;4.90;99.90;;;;;;4998815;28;20086;-76
2023/10/18 03:24:37;;;;;;;18.90;11.23;;;4.90;99.90;;;;;;4998141;28;20042;-75
2023/10/18 03:27:11;;;;;;;20.70;11.65;;;4.90;99.90;;;;;;4983012;28;20149;-75
2023/10/18 03:29:43;;;;;;;20.15;11.60;;;4.90;99.90;;;;;;4999871;28;20418;-75
2023/10/18 03:32:14;;;;;;;20.90;11.65;;;4.90;99.90;;;;;;5000894;28;20050;-75
2023/10/18 03:34:41;;;;;;;21.98;11.38;;;4.90;99.90;;;;;;4975559;28;20054;-75
2023/10/18 03:37:24;;;;;;;20.02;11.27;;;5.20;99.90;;;;;;4980165;28;20490;-75
2023/10/18 03:39:55;;;;;;;20.10;11.52;;;4.90;99.90;;;;;;4991544;28;20082;-74
2023/10/18 03:42:31;;;;;;;21.00;11.88;;;4.90;99.90;;;;;;4996460;28;20517;-75
2023/10/18 03:45:11;;;;;;;20.27;12.00;;;5.10;99.90;;;;;;4993260;28;20046;-75
2023/10/18 03:47:37;;;;;;;22.13;11.80;;;4.90;99.90;;;;;;4994035;28;20061;-75
2023/10/18 03:50:15;;;;;;;20.02;12.02;;;4.90;99.90;;;;;;5001248;28;20046;-75
2023/10/18 03:52:41;;;;;;;19.98;11.85;;;4.90;99.90;;;;;;4996451;28;20058;-75
2023/10/18 03:55:16;;;;;;;19.92;11.15;;;4.90;99.90;;;;;;4992149;28;20464;-75
2023/10/18 03:57:42;;;;;;;24.30;11.95;;;4.90;99.90;;;;;;4982198;28;20399;-75
2023/10/18 04:00:28;;;;;;;21.50;12.43;;;5.70;99.90;;;;;;4982377;28;20071;-75
2023/10/18 04:03:00;;;;;;;21.65;11.35;;;4.90;99.90;;;;;;4989968;28;20414;-75
2023/10/18 04:05:45;;;;;;;18.45;10.82;;;4.90;99.90;;;;;;4980389;28;20132;-75
2023/10/18 04:08:19;;;;;;;20.23;12.13;;;4.90;99.90;;;;;;4992364;28;20045;-75
2023/10/18 04:10:58;;;;;;;22.35;12.45;;;4.90;99.90;;;;;;4982309;28;20067;-75
2023/10/18 04:13:25;;;;;;;21.10;11.65;;;4.80;99.90;;;;;;4996412;28;20050;-75
2023/10/18 04:15:59;;;;;;;20.88;11.27;;;5.30;99.90;;;;;;4978891;28;20376;-75
2023/10/18 04:18:31;;;;;;;18.85;11.50;;;4.80;99.90;;;;;;4997795;28;20058;-76
2023/10/18 04:20:59;;;;;;;;;;;4.80;99.90;;;;;;4989963;28;20762;-75
2023/10/18 04:23:28;;;;;;;20.80;12.23;;;4.80;99.90;;;;;;4978869;28;19925;-75
2023/10/18 04:25:58;;;;;;;17.80;11.20;;;4.80;99.90;;;;;;4993305;28;20064;-75
2023/10/18 04:28:29;;;;;;;19.73;11.07;;;4.80;99.90;;;;;;4975839;28;20577;-75
2023/10/18 04:31:01;;;;;;;18.98;11.75;;;4.80;99.90;;;;;;4994854;28;20037;-75
2023/10/18 04:33:40;;;;;;;22.92;12.77;;;4.80;99.90;;;;;;5002252;28;20064;-75
2023/10/18 04:36:16;;;;;;;18.73;11.30;;;4.80;99.90;;;;;;4995448;28;20533;-75
2023/10/18 04:38:44;;;;;;;20.30;11.82;;;5.60;99.90;;;;;;4984472;28;20380;-75
2023/10/18 04:43:47;;;;;;;20.85;12.20;;;4.90;99.90;;;;;;4997118;28;20501;-75
2023/10/18 04:51:26;;;;;;;26.23;13.70;;;4.80;99.90;;;;;;4992455;28;20046;-76
2023/10/18 04:54:09;;;;;;;23.00;12.68;;;4.70;99.90;;;;;;4984312;28;20450;-75
2023/10/18 04:56:39;;;;;;;23.13;13.02;;;4.80;99.90;;;;;;4975798;28;20052;-75
2023/10/18 05:04:29;;;;;;;24.65;13.77;;;4.70;99.90;;;;;;4990329;28;20089;-75
2023/10/18 05:06:56;;;;;;;23.73;13.63;;;4.80;99.90;;;;;;5004270;28;20080;-75
2023/10/18 05:09:34;;;;;;;25.05;15.02;;;4.80;99.90;;;;;;5006526;28;20049;-75
2023/10/18 05:12:15;;;;;;;26.33;14.98;;;4.80;99.90;;;;;;4984539;28;20038;-75
2023/10/18 05:14:42;;;;;;;23.70;14.40;;;4.70;99.90;;;;;;4977454;28;20258;-75
2023/10/18 05:17:17;;;;;;;25.30;13.75;;;4.70;99.90;;;;;;4990965;28;20080;-76
2023/10/18 05:19:44;;;;;;;25.85;14.65;;;4.70;99.90;;;;;;4989205;28;20046;-75
2023/10/18 05:22:23;;;;;;;23.98;14.68;;;5.00;99.90;;;;;;4972787;28;20068;-76
2023/10/18 05:27:45;;;;;;;23.53;14.93;;;4.70;99.90;;;;;;4992489;28;20049;-75
2023/10/18 05:30:15;;;;;;;;;;;4.70;99.90;;;;;;5006298;28;20403;-75
2023/10/18 05:35:29;;;;;;;26.35;15.32;;;4.70;99.90;;;;;;4988351;28;20081;-76
2023/10/18 05:38:48;;;;;;;25.00;15.38;;;4.70;99.90;;;;;;5001395;28;20073;-76
2023/10/18 05:40:56;;;;;;;23.77;14.95;;;4.70;99.90;;;;;;4978015;28;20418;-76
2023/10/18 05:43:31;;;;;;;29.58;15.32;;;4.70;99.90;;;;;;4983140;28;20540;-76
2023/10/18 05:46:07;;;;;;;28.23;16.02;;;4.70;99.90;;;;;;4987829;28;20037;-76
2023/10/18 05:48:40;;;;;;;29.73;16.33;;;4.70;99.90;;;;;;4972318;28;20495;-76
2023/10/18 05:51:26;;;;;;;28.63;18.00;;;4.90;99.90;;;;;;4989973;28;20054;-76
2023/10/18 05:53:59;;;;;;;28.17;16.65;;;4.70;99.90;;;;;;4987192;28;20049;-76
2023/10/18 05:56:34;;;;;;;32.00;16.67;;;4.70;99.90;;;;;;4985267;28;20049;-77
2023/10/18 06:01:53;;;;;;;27.88;16.92;;;4.80;99.90;;;;;;4982041;28;20057;-77
2023/10/18 06:04:26;;;;;;;28.80;16.90;;;4.80;99.90;;;;;;4970226;28;20423;-76
2023/10/18 06:06:58;;;;;;;27.60;17.10;;;4.70;99.90;;;;;;4970652;28;20494;-76
2023/10/18 06:09:54;;;;;;;26.92;17.40;;;4.70;99.90;;;;;;4987882;28;20045;-76
2023/10/18 06:12:15;;;;;;;30.10;17.60;;;4.70;99.90;;;;;;4986421;28;20115;-76
2023/10/18 06:14:44;;;;;;;24.60;16.40;;;4.70;99.90;;;;;;4986766;28;20581;-76
2023/10/18 06:17:19;;;;;;;30.27;17.85;;;4.70;99.90;;;;;;5000922;28;20076;-76
2023/10/18 06:19:47;;;;;;;31.80;17.08;;;4.70;99.90;;;;;;4970374;28;20056;-76
2023/10/18 06:22:15;;;;;;;27.83;16.98;;;4.70;99.90;;;;;;4985368;28;20495;-76
2023/10/18 06:24:48;;;;;;;26.42;17.42;;;5.00;99.90;;;;;;4982660;28;20046;-76
2023/10/18 06:27:16;;;;;;;29.70;18.02;;;4.70;99.90;;;;;;4971131;28;20042;-76
2023/10/18 06:29:45;;;;;;;28.88;18.20;;;4.70;99.90;;;;;;4987076;28;20379;-76
2023/10/18 06:32:15;;;;;;;30.48;17.15;;;4.70;99.90;;;;;;4987296;28;20679;-76
2023/10/18 06:34:44;;;;;;;26.42;16.35;;;4.70;99.90;;;;;;4990436;28;20188;-76
2023/10/18 06:37:20;;;;;;;32.33;18.13;;;4.80;99.90;;;;;;4990962;28;20038;-76
2023/10/18 06:39:58;;;;;;;31.08;19.17;;;4.70;99.90;;;;;;4973812;28;20046;-76
2023/10/18 06:42:26;;;;;;;30.00;18.08;;;4.70;99.90;;;;;;4987752;28;20115;-76
2023/10/18 06:44:54;;;;;;;30.33;17.50;;;4.80;99.90;;;;;;4989354;28;20042;-76
2023/10/18 06:47:30;;;;;;;32.13;18.48;;;4.80;99.90;;;;;;4987061;28;20045;-76
2023/10/18 06:49:59;;;;;;;28.00;17.08;;;4.80;99.90;;;;;;4969872;28;20081;-76
2023/10/18 06:52:28;;;;;;;28.08;17.73;;;5.00;99.90;;;;;;4984970;28;20042;-76
2023/10/18 06:54:54;;;;;;;30.58;18.40;;;4.80;99.90;;;;;;4983302;28;20077;-76
2023/10/18 06:57:27;;;;;;;30.08;18.38;;;4.80;99.90;;;;;;4981665;28;20125;-76
2023/10/18 06:59:55;;;;;;;30.40;18.73;;;4.80;99.90;;;;;;4968419;28;20042;-76
2023/10/18 07:02:26;;;;;;;26.30;16.63;;;4.90;99.90;;;;;;4983686;28;20051;-75
2023/10/18 07:04:56;;;;;;;;;;;4.90;99.90;;;;;;4965768;28;20092;-76
2023/10/18 07:07:23;;;;;;;27.00;16.55;;;5.20;99.90;;;;;;4989642;28;19936;-76
2023/10/18 07:09:53;;;;;;;29.00;17.23;;;4.90;99.90;;;;;;4965496;28;20769;-76
2023/10/18 07:12:28;;;;;;;27.77;17.13;;;5.40;99.90;;;;;;4963995;28;20133;-76
2023/10/18 07:14:57;;;;;;;32.03;18.10;;;4.90;99.90;;;;;;4982821;28;20190;-75
2023/10/18 07:17:24;;;;;;;29.13;17.67;;;4.90;99.90;;;;;;4966188;28;20060;-75
2023/10/18 07:19:59;;;;;;;28.95;16.58;;;5.00;99.90;;;;;;4981067;28;20058;-76
2023/10/18 07:22:41;;;;;;;26.15;16.88;;;5.10;99.90;;;;;;4971549;28;20064;-76
2023/10/18 07:25:08;;;;;;;27.27;16.80;;;5.10;99.90;;;;;;4969644;28;20062;-75
2023/10/18 07:27:39;;;;;;;28.35;16.67;;;5.10;99.90;;;;;;4977155;28;20501;-76
2023/10/18 07:30:14;;;;;;;27.73;17.13;;;5.20;99.90;;;;;;4982884;28;20125;-75
2023/10/18 07:32:39;;;;;;;30.42;16.10;;;5.20;99.90;;;;;;4980807;28;20059;-75
2023/10/18 07:35:06;;;;;;;27.00;15.35;;;5.20;99.90;;;;;;4979860;28;20050;-76
2023/10/18 07:37:39;;;;;;;28.75;16.65;;;5.30;99.90;;;;;;4982592;28;20053;-75
2023/10/18 07:40:11;;;;;;;29.88;16.83;;;5.30;99.90;;;;;;4970345;28;20041;-75
2023/10/18 07:42:43;;;;;;;;;;;5.40;99.90;;;;;;4970139;28;20145;-75
2023/10/18 07:45:14;;;;;;;35.60;16.30;;;5.40;99.90;;;;;;4977831;28;19932;-75
2023/10/18 07:47:40;;;;;;;27.70;15.60;;;5.40;99.90;;;;;;4981714;28;20383;-75
2023/10/18 07:52:54;;;;;;;22.95;15.00;;;5.50;99.90;;;;;;4988103;28;20050;-76
2023/10/18 07:55:23;;;;;;;25.17;15.27;;;5.60;99.90;;;;;;4987366;28;20076;-76
2023/10/18 07:57:50;;;;;;;28.85;16.08;;;5.60;99.90;;;;;;4986932;28;20042;-75
2023/10/18 08:00:23;;;;;;;23.98;15.00;;;5.70;99.90;;;;;;4971274;28;20053;-75
2023/10/18 08:02:52;;;;;;;24.27;15.13;;;5.70;99.90;;;;;;4970991;28;20049;-75
2023/10/18 08:05:21;;;;;;;27.55;14.65;;;5.80;99.90;;;;;;4984154;28;20054;-75
2023/10/18 08:07:51;;;;;;;25.65;14.63;;;5.90;99.90;;;;;;4985977;28;20057;-76
2023/10/18 08:10:23;;;;;;;25.77;15.30;;;6.00;99.90;;;;;;4971062;28;20045;-75
2023/10/18 08:13:16;;;;;;;27.50;15.70;;;5.90;99.90;;;;;;4987062;28;20490;-76
2023/10/18 08:15:37;;;;;;;27.23;15.13;;;6.00;99.90;;;;;;4987069;28;20042;-75
2023/10/18 08:18:16;;;;;;;26.33;14.55;;;6.10;99.90;;;;;;4972475;28;20441;-75
2023/10/18 08:26:03;;;;;;;24.67;14.27;;;6.10;99.90;;;;;;4990276;28;20528;-75
2023/10/18 08:28:38;;;;;;;24.25;14.85;;;6.20;99.90;;;;;;4988272;28;20066;-75
2023/10/18 08:31:32;;;;;;;22.75;13.57;;;6.20;99.90;;;;;;4993377;28;20057;-76
2023/10/18 08:34:05;;;;;;;23.98;13.43;;;6.30;99.90;;;;;;4968786;28;20577;-76
2023/10/18 08:36:32;;;;;;;27.95;14.00;;;6.30;99.90;;;;;;4998727;28;20057;-75
2023/10/18 08:38:59;;;;;;;22.02;13.57;;;6.40;99.90;;;;;;4993522;28;20433;-76
2023/10/18 08:41:37;;;;;;;28.50;14.35;;;6.40;99.90;;;;;;4976577;28;20410;-75
2023/10/18 08:44:16;;;;;;;23.13;13.23;;;6.40;99.90;;;;;;4990304;28;20053;-75
2023/10/18 08:47:11;;;;;;;23.83;13.75;;;7.00;99.90;;;;;;4974536;28;20514;-75
2023/10/18 08:49:52;;;;;;;23.60;13.43;;;6.50;99.90;;;;;;4991917;28;20052;-76
2023/10/18 08:52:28;;;;;;;22.95;13.73;;;6.60;99.90;;;;;;4993429;28;20049;-75
2023/10/18 08:54:55;;;;;;;23.00;13.73;;;6.60;99.90;;;;;;4990668;28;20042;-76
2023/10/18 08:57:35;;;;;;;19.48;13.02;;;6.70;99.90;;;;;;4985529;28;20129;-75
2023/10/18 09:02:50;;;;;;;19.33;12.13;;;6.70;99.90;;;;;;4992567;28;20056;-75
2023/10/18 09:05:22;;;;;;;21.58;13.60;;;6.80;99.90;;;;;;4974835;28;20046;-75
2023/10/18 09:07:51;;;;;;;21.60;13.25;;;6.90;99.90;;;;;;4975451;28;20755;-75
2023/10/18 09:15:54;;;;;;;20.15;12.70;;;7.00;99.90;;;;;;4989858;28;20218;-76
2023/10/18 09:18:24;;;;;;;24.00;13.25;;;7.00;99.90;;;;;;4964765;28;20600;-75
2023/10/18 09:20:53;;;;;;;20.23;12.73;;;7.10;99.90;;;;;;5008303;28;20057;-75
2023/10/18 09:23:21;;;;;;;20.85;13.20;;;7.10;99.90;;;;;;4974503;28;20506;-76
2023/10/18 09:28:41;;;;;;;21.27;12.90;;;7.20;99.90;;;;;;4989541;28;20281;-75
2023/10/18 09:31:10;;;;;;;26.25;13.25;;;7.30;99.90;;;;;;4973981;28;20041;-75
2023/10/18 09:33:48;;;;;;;20.50;12.93;;;7.30;99.90;;;;;;4965697;28;20392;-75
2023/10/18 09:36:25;;;;;;;24.58;11.50;;;7.30;99.90;;;;;;4989734;28;20056;-76
2023/10/18 09:38:55;;;;;;;20.85;13.05;;;7.30;99.90;;;;;;4988724;28;20056;-75
2023/10/18 09:41:22;;;;;;;19.23;11.65;;;7.40;99.90;;;;;;4972874;28;20050;-75
2023/10/18 09:43:49;;;;;;;20.75;12.07;;;7.40;99.90;;;;;;4971139;28;20050;-75
2023/10/18 09:46:16;;;;;;;18.90;11.38;;;7.50;99.90;;;;;;4973018;28;20052;-75
2023/10/18 09:48:44;;;;;;;17.73;10.88;;;7.50;99.90;;;;;;4970895;28;20546;-75
2023/10/18 09:51:14;;;;;;;19.33;11.23;;;7.60;99.90;;;;;;4987924;28;20125;-75
2023/10/18 09:53:51;;;;;;;19.73;10.95;;;7.60;99.90;;;;;;4987072;28;20049;-76
2023/10/18 09:56:24;;;;;;;18.58;10.77;;;7.60;99.90;;;;;;4986038;28;20034;-75
2023/10/18 09:59:05;;;;;;;18.30;10.57;;;7.80;99.90;;;;;;4988822;28;20115;-75
2023/10/18 10:04:22;;;;;;;18.77;11.07;;;7.90;99.90;;;;;;4988837;28;20087;-75
2023/10/18 10:06:53;;;;;;;19.83;10.57;;;7.90;99.90;;;;;;4982891;28;20057;-75
2023/10/18 10:09:38;;;;;;;17.15;10.00;;;8.00;99.90;;;;;;4983310;28;20054;-76
2023/10/18 10:12:10;;;;;;;18.55;9.68;;;8.00;99.90;;;;;;4973115;28;20457;-75
2023/10/18 10:14:37;;;;;;;18.05;10.07;;;8.10;99.90;;;;;;4989654;28;20057;-75
2023/10/18 10:17:09;;;;;;;17.35;10.88;;;8.20;99.90;;;;;;4986021;28;20445;-75
2023/10/18 10:19:46;;;;;;;16.15;9.68;;;8.20;99.90;;;;;;4968821;28;20053;-76
2023/10/18 10:22:13;;;;;;;17.30;9.80;;;8.40;99.90;;;;;;4981536;28;20528;-76
2023/10/18 10:24:42;;;;;;;15.40;9.77;;;8.40;99.90;;;;;;4986614;28;20268;-75
2023/10/18 10:30:10;;;;;;;16.10;10.50;;;8.50;99.90;;;;;;4986195;28;20390;-75
2023/10/18 10:32:45;;;;;;;17.95;10.20;;;8.50;99.90;;;;;;4988434;28;20042;-77
2023/10/18 10:35:16;;;;;;;18.70;10.18;;;8.60;99.90;;;;;;4972245;28;20053;-76
2023/10/18 10:37:49;;;;;;;15.98;10.10;;;8.60;99.90;;;;;;4985777;28;20237;-75
2023/10/18 10:40:39;;;;;;;15.35;10.50;;;8.70;99.90;;;;;;4986494;28;20054;-75
2023/10/18 10:43:18;;;;;;;16.88;10.43;;;8.70;99.90;;;;;;4985541;28;20104;-75
2023/10/18 10:53:58;;;;;;;14.00;9.60;;;8.90;99.90;;;;;;4983926;28;20136;-75
2023/10/18 10:56:26;;;;;;;18.25;10.25;;;8.90;99.90;;;;;;4966491;28;20108;-74
2023/10/18 10:59:03;;;;;;;16.10;9.90;;;9.00;99.90;;;;;;4972497;28;20050;-75
2023/10/18 11:04:46;;;;;;;17.45;9.65;;;9.00;99.90;;;;;;5003385;28;20060;-73
2023/10/18 11:07:21;;;;;;;14.80;8.87;;;9.20;99.90;;;;;;4994905;28;20056;-75
2023/10/18 11:10:06;;;;;;;16.17;9.75;;;9.10;99.90;;;;;;4977857;28;20128;-75
2023/10/18 11:12:33;;;;;;;16.35;9.15;;;9.10;99.90;;;;;;4971845;28;20042;-74
2023/10/18 11:15:04;;;;;;;16.80;9.07;;;10.10;99.90;;;;;;4990713;28;20050;-75
2023/10/18 11:17:34;;;;;;;14.68;9.77;;;9.20;99.90;;;;;;4987874;28;20053;-74
2023/10/18 11:20:18;;;;;;;15.63;9.93;;;9.20;99.90;;;;;;4987881;28;20057;-76
2023/10/18 11:22:47;;;;;;;14.27;8.93;;;9.20;99.90;;;;;;4974487;28;20053;-76
2023/10/18 11:25:19;;;;;;;14.98;9.23;;;9.30;99.90;;;;;;4975455;28;20131;-77
2023/10/18 11:27:45;;;;;;;15.57;9.50;;;9.30;99.90;;;;;;4959534;28;20054;-75
2023/10/18 11:30:25;;;;;;;15.13;8.82;;;9.30;99.90;;;;;;4987615;28;20045;-75
2023/10/18 11:32:54;;;;;;;13.77;8.77;;;9.40;99.90;;;;;;4973620;28;20372;-75
2023/10/18 11:35:42;;;;;;;14.90;9.43;;;9.40;99.90;;;;;;4990805;28;20042;-75
2023/10/18 11:38:12;;;;;;;14.63;9.07;;;9.40;99.90;;;;;;4983091;28;20053;-75
2023/10/18 11:40:43;;;;;;;14.55;9.65;;;9.50;99.90;;;;;;4991063;28;20085;-75
2023/10/18 11:43:10;;;;;;;14.55;8.30;;;9.50;99.90;;;;;;4972965;28;20557;-75
2023/10/18 11:45:42;;;;;;;15.48;9.43;;;9.50;99.90;;;;;;4969826;28;20125;-75
2023/10/18 11:48:14;;;;;;;15.25;9.30;;;9.50;99.90;;;;;;4969346;28;20536;-75
2023/10/18 11:50:50;;;;;;;12.38;8.35;;;9.00;99.90;;;;;;4967375;28;20738;-74
2023/10/18 11:53:23;;;;;;;15.73;8.60;;;9.60;99.90;;;;;;4972100;28;20049;-74
2023/10/18 11:55:56;;;;;;;15.45;8.15;;;9.70;99.90;;;;;;4969687;28;20514;-75
2023/10/18 11:58:26;;;;;;;12.73;7.85;;;9.70;99.90;;;;;;4970765;28;20057;-75
2023/10/18 12:01:05;;;;;;;12.82;8.15;;;9.70;99.90;;;;;;4971251;28;20189;-75
2023/10/18 12:03:33;;;;;;;15.48;8.82;;;9.30;99.90;;;;;;4971409;28;20549;-75
2023/10/18 12:06:00;;;;;;;13.63;9.27;;;9.80;99.90;;;;;;4986354;28;20057;-75
2023/10/18 12:08:33;;;;;;;13.25;8.88;;;9.80;99.90;;;;;;4986500;28;20049;-75
2023/10/18 12:11:04;;;;;;;17.60;8.93;;;9.90;99.90;;;;;;4991360;28;20042;-76
2023/10/18 12:13:30;;;;;;;12.55;8.25;;;9.90;99.90;;;;;;4987537;28;20552;-76
2023/10/18 12:16:00;;;;;;;13.82;8.38;;;9.90;99.90;;;;;;4985259;28;20378;-74
2023/10/18 12:18:28;;;;;;;13.77;8.38;;;10.00;99.90;;;;;;4984919;28;20418;-75
2023/10/18 12:20:57;;;;;;;16.27;8.32;;;10.10;99.90;;;;;;4967255;28;20137;-75
2023/10/18 12:23:26;;;;;;;13.85;7.60;;;10.10;99.90;;;;;;4970298;28;20330;-74
2023/10/18 12:25:52;;;;;;;14.27;7.43;;;10.10;99.90;;;;;;4986358;28;20503;-78
2023/10/18 12:28:27;;;;;;;16.25;8.48;;;10.10;99.90;;;;;;4970334;28;20119;-75
2023/10/18 12:30:55;;;;;;;14.32;7.97;;;10.10;99.90;;;;;;4968403;28;20042;-75
2023/10/18 12:33:28;;;;;;;15.52;7.93;;;10.20;99.90;;;;;;4989211;28;20136;-75
2023/10/18 12:35:59;;;;;;;14.52;8.27;;;9.40;99.90;;;;;;4971630;28;20071;-75
2023/10/18 12:38:32;;;;;;;11.70;7.57;;;10.20;99.90;;;;;;4970977;28;20686;-76
2023/10/18 12:41:07;;;;;;;12.80;7.50;;;10.20;99.90;;;;;;4987933;28;20485;-76
2023/10/18 12:43:38;;;;;;;11.63;7.53;;;10.20;99.90;;;;;;4972610;28;20052;-75
2023/10/18 12:46:04;;;;;;;15.18;7.75;;;10.20;99.90;;;;;;4971891;28;20049;-75
2023/10/18 12:48:31;;;;;;;16.05;7.57;;;10.20;99.90;;;;;;4977632;28;20089;-76
2023/10/18 12:51:12;;;;;;;16.10;8.15;;;10.30;99.90;;;;;;4987948;28;20041;-75
2023/10/18 13:04:07;;;;;;;12.52;7.80;;;10.30;99.90;;;;;;4998808;28;20053;-76
2023/10/18 13:06:43;;;;;;;14.60;7.90;;;9.50;99.90;;;;;;4997183;28;20379;-75
2023/10/18 13:09:19;;;;;;;12.77;7.07;;;10.40;99.90;;;;;;4985506;28;20046;-75
2023/10/18 13:12:00;;;;;;;14.75;7.95;;;10.40;99.90;;;;;;4979198;28;20049;-75
2023/10/18 13:14:29;;;;;;;13.80;7.47;;;10.40;99.90;;;;;;4981439;28;20058;-75
2023/10/18 13:16:58;;;;;;;13.38;8.02;;;10.40;99.90;;;;;;4985402;28;20061;-75
2023/10/18 13:19:27;;;;;;;14.25;8.25;;;10.50;99.90;;;;;;4982587;28;20053;-75
2023/10/18 13:21:53;;;;;;;14.48;8.18;;;10.40;99.90;;;;;;4986549;28;20084;-75
2023/10/18 13:26:53;;;;;;;13.98;7.70;;;10.50;99.90;;;;;;4995378;28;20686;-75
2023/10/18 13:31:49;;;;;;;16.10;7.68;;;10.60;99.90;;;;;;4971960;28;20137;-75
2023/10/18 13:34:18;;;;;;;14.75;7.20;;;10.50;99.90;;;;;;4972581;28;20558;-77
2023/10/18 13:36:54;;;;;;;13.88;7.32;;;10.50;99.90;;;;;;4970525;28;20050;-75
2023/10/18 13:39:23;;;;;;;17.35;7.70;;;10.50;99.90;;;;;;4977558;28;20049;-75
2023/10/18 13:41:49;;;;;;;13.63;7.90;;;10.60;99.90;;;;;;4971020;28;20469;-75
2023/10/18 13:44:19;;;;;;;13.80;7.60;;;10.60;99.90;;;;;;4966421;28;20136;-75
2023/10/18 13:46:47;;;;;;;12.43;7.50;;;10.60;99.90;;;;;;4996515;28;20097;-75
2023/10/18 13:49:17;;;;;;;11.88;7.28;;;10.70;99.90;;;;;;4970062;28;20438;-75
2023/10/18 13:51:45;;;;;;;13.75;7.25;;;11.40;99.90;;;;;;4970427;28;20148;-75
2023/10/18 13:54:13;;;;;;;12.93;6.63;;;11.10;99.90;;;;;;4975581;28;20195;-74
2023/10/18 13:56:40;;;;;;;14.30;8.18;;;10.70;99.90;;;;;;4959170;28;20054;-74
2023/10/18 13:59:11;;;;;;;12.75;7.25;;;10.80;99.90;;;;;;4960515;28;20047;-75
2023/10/18 14:01:41;;;;;;;14.32;6.70;;;10.80;99.90;;;;;;4955429;28;20042;-75
2023/10/18 14:04:08;;;;;;;11.63;7.30;;;10.80;99.90;;;;;;4978570;28;20518;-75
2023/10/18 14:06:35;;;;;;;11.68;7.05;;;10.80;99.90;;;;;;4992652;28;20426;-75
2023/10/18 14:09:10;;;;;;;12.45;6.90;;;10.80;99.90;;;;;;4995032;28;20108;-75
2023/10/18 14:11:40;;;;;;;12.27;7.28;;;10.80;99.90;;;;;;4960748;28;20046;-75
2023/10/18 14:14:11;;;;;;;12.33;6.90;;;10.80;99.90;;;;;;4963147;28;20077;-74
2023/10/18 14:16:37;;;;;;;12.75;7.50;;;10.80;99.90;;;;;;4974780;28;20646;-74
2023/10/18 14:19:07;;;;;;;12.73;6.95;;;11.00;99.90;;;;;;4962998;28;20046;-74